createdAt,value
2019-06-15T00:02:02.952Z,53.80
2019-06-15T00:04:31.262Z,53.80
2019-06-15T00:06:59.956Z,53.90
2019-06-15T00:09:28.259Z,53.90
2019-06-15T00:11:57.019Z,54.00
2019-06-15T00:14:25.793Z,54.00
2019-06-15T00:16:54.200Z,54.20
2019-06-15T00:19:22.473Z,54.20
2019-06-15T00:21:51.046Z,54.40
2019-06-15T00:24:19.331Z,54.20
2019-06-15T00:26:47.906Z,54.20
2019-06-15T00:29:16.370Z,55.00
2019-06-15T00:31:44.675Z,54.40
2019-06-15T00:34:13.350Z,55.20
2019-06-15T00:36:41.944Z,54.40
2019-06-15T00:39:10.356Z,54.30
2019-06-15T00:41:38.719Z,54.30
2019-06-15T00:44:07.326Z,55.10
2019-06-15T00:46:35.659Z,54.30
2019-06-15T00:49:03.935Z,54.40
2019-06-15T00:51:39.217Z,54.50
2019-06-15T00:54:07.642Z,54.60
2019-06-15T00:56:35.947Z,54.60
2019-06-15T00:59:04.518Z,54.70
2019-06-15T01:01:35.418Z,54.70
2019-06-15T01:04:03.112Z,54.80
2019-06-15T01:06:31.506Z,54.90
2019-06-15T01:08:59.787Z,55.00
2019-06-15T01:11:28.357Z,55.10
2019-06-15T01:13:56.638Z,55.10
2019-06-15T01:16:25.006Z,55.20
2019-06-15T01:18:53.514Z,55.20
2019-06-15T01:21:22.190Z,55.30
2019-06-15T01:23:50.769Z,55.30
2019-06-15T01:26:19.190Z,55.30
2019-06-15T01:28:47.499Z,55.40
2019-06-15T01:31:15.810Z,55.20
2019-06-15T01:33:44.399Z,55.30
2019-06-15T01:36:12.693Z,55.40
2019-06-15T01:38:40.982Z,55.30
2019-06-15T01:41:09.297Z,55.40
2019-06-15T01:43:37.584Z,55.40
2019-06-15T01:46:05.873Z,55.70
2019-06-15T01:48:34.467Z,55.70
2019-06-15T01:51:02.842Z,55.80
2019-06-15T01:53:31.406Z,55.70
2019-06-15T01:55:59.739Z,55.80
2019-06-15T01:58:28.082Z,55.90
2019-06-15T02:00:56.406Z,55.90
2019-06-15T02:03:25.030Z,55.80
2019-06-15T02:05:53.315Z,56.00
2019-06-15T02:08:21.690Z,56.00
2019-06-15T02:10:50.375Z,56.10
2019-06-15T02:13:19.181Z,56.20
2019-06-15T02:15:49.965Z,56.10
2019-06-15T02:18:18.783Z,56.00
2019-06-15T02:20:47.369Z,56.00
2019-06-15T02:23:15.658Z,56.00
2019-06-15T02:25:43.952Z,56.10
2019-06-15T02:28:12.266Z,56.10
2019-06-15T02:30:40.548Z,56.10
2019-06-15T02:33:08.847Z,56.50
2019-06-15T02:35:37.147Z,56.30
2019-06-15T02:38:05.456Z,56.20
2019-06-15T02:40:33.760Z,56.20
2019-06-15T02:43:02.363Z,56.20
2019-06-15T02:45:30.651Z,56.30
2019-06-15T02:47:58.944Z,56.20
2019-06-15T02:50:27.249Z,56.30
2019-06-15T02:52:55.531Z,56.10
2019-06-15T02:55:23.885Z,56.00
2019-06-15T02:57:52.185Z,56.00
2019-06-15T03:00:35.334Z,56.10
2019-06-15T03:03:03.650Z,56.10
2019-06-15T03:05:31.931Z,56.20
2019-06-15T03:08:00.327Z,56.20
2019-06-15T03:10:28.610Z,56.80
2019-06-15T03:12:57.286Z,56.20
2019-06-15T03:15:25.655Z,56.30
2019-06-15T03:17:53.955Z,56.30
2019-06-15T03:20:22.240Z,56.30
2019-06-15T03:22:50.878Z,56.30
2019-06-15T03:25:19.158Z,56.50
2019-06-15T03:27:47.827Z,56.40
2019-06-15T03:30:16.423Z,56.60
2019-06-15T03:32:44.728Z,56.50
2019-06-15T03:35:14.868Z,56.60
2019-06-15T03:37:43.151Z,56.60
2019-06-15T03:40:12.479Z,56.60
2019-06-15T03:42:40.843Z,56.50
2019-06-15T03:45:09.150Z,56.60
2019-06-15T03:47:37.506Z,57.20
2019-06-15T03:50:06.433Z,56.60
2019-06-15T03:52:34.716Z,56.80
2019-06-15T03:55:03.067Z,56.70
2019-06-15T03:57:31.358Z,56.70
2019-06-15T03:59:59.923Z,56.70
2019-06-15T04:02:28.240Z,56.80
2019-06-15T04:04:56.996Z,56.80
2019-06-15T04:07:25.279Z,56.90
2019-06-15T04:09:53.575Z,56.90
2019-06-15T04:12:21.863Z,56.90
2019-06-15T04:14:50.403Z,57.00
2019-06-15T04:17:18.690Z,56.90
2019-06-15T04:19:46.999Z,57.00
2019-06-15T04:22:15.298Z,56.90
2019-06-15T04:24:43.929Z,57.00
2019-06-15T04:27:12.513Z,57.00
2019-06-15T04:29:40.815Z,57.00
2019-06-15T04:32:09.116Z,57.10
2019-06-15T04:34:37.415Z,57.10
2019-06-15T04:37:05.720Z,57.10
2019-06-15T04:39:34.002Z,57.20
2019-06-15T04:42:02.412Z,57.20
2019-06-15T04:44:30.871Z,57.30
2019-06-15T04:46:59.182Z,57.30
2019-06-15T04:49:27.539Z,57.40
2019-06-15T04:51:55.836Z,57.40
2019-06-15T04:54:24.121Z,57.40
2019-06-15T04:56:52.424Z,57.50
2019-06-15T04:59:20.953Z,57.40
2019-06-15T05:01:50.020Z,57.60
2019-06-15T05:04:18.480Z,57.50
2019-06-15T05:06:46.810Z,57.50
2019-06-15T05:09:15.107Z,57.50
2019-06-15T05:11:43.394Z,57.50
2019-06-15T05:14:11.768Z,57.60
2019-06-15T05:16:40.074Z,57.70
2019-06-15T05:19:08.679Z,57.80
2019-06-15T05:21:37.249Z,57.80
2019-06-15T05:24:08.627Z,57.80
2019-06-15T05:26:36.267Z,57.80
2019-06-15T05:29:04.844Z,57.70
2019-06-15T05:31:33.139Z,57.80
2019-06-15T05:34:01.521Z,57.70
2019-06-15T05:36:29.816Z,57.70
2019-06-15T05:38:58.090Z,57.70
2019-06-15T05:41:26.391Z,57.80
2019-06-15T05:43:55.021Z,57.80
2019-06-15T05:46:23.605Z,57.80
2019-06-15T05:48:52.208Z,57.80
2019-06-15T05:51:20.614Z,57.90
2019-06-15T05:53:50.607Z,57.80
2019-06-15T05:56:18.911Z,57.90
2019-06-15T05:58:47.539Z,58.00
2019-06-15T06:01:15.867Z,58.00
2019-06-15T06:03:44.574Z,58.00
2019-06-15T06:06:13.199Z,58.00
2019-06-15T06:08:41.492Z,58.10
2019-06-15T06:11:09.810Z,58.20
2019-06-15T06:13:38.408Z,58.10
2019-06-15T06:16:06.822Z,58.10
2019-06-15T06:18:35.503Z,58.20
2019-06-15T06:21:03.849Z,58.20
2019-06-15T06:23:32.148Z,58.20
2019-06-15T06:26:00.435Z,58.30
2019-06-15T06:28:28.723Z,58.20
2019-06-15T06:30:57.293Z,58.30
2019-06-15T06:33:25.583Z,58.30
2019-06-15T06:35:53.868Z,58.30
2019-06-15T06:38:22.166Z,58.30
2019-06-15T06:40:50.548Z,58.30
2019-06-15T06:43:19.039Z,58.20
2019-06-15T06:45:47.448Z,58.30
2019-06-15T06:48:16.042Z,59.00
2019-06-15T06:50:44.900Z,58.40
2019-06-15T06:53:13.514Z,58.40
2019-06-15T06:55:42.637Z,58.40
2019-06-15T06:58:10.951Z,58.40
2019-06-15T07:00:39.575Z,58.40
2019-06-15T07:03:07.955Z,58.50
2019-06-15T07:05:36.260Z,58.50
2019-06-15T07:08:04.810Z,58.40
2019-06-15T07:10:33.114Z,58.50
2019-06-15T07:13:01.723Z,58.40
2019-06-15T07:15:30.053Z,58.50
2019-06-15T07:17:58.359Z,58.90
2019-06-15T07:20:26.917Z,58.70
2019-06-15T07:22:55.211Z,58.70
2019-06-15T07:25:23.614Z,59.00
2019-06-15T07:28:06.926Z,58.90
2019-06-15T07:30:22.275Z,58.90
2019-06-15T07:32:50.554Z,59.00
2019-06-15T07:35:18.866Z,59.00
2019-06-15T07:37:47.585Z,58.90
2019-06-15T07:40:16.821Z,58.90
2019-06-15T07:42:45.111Z,59.00
2019-06-15T07:45:13.675Z,58.90
2019-06-15T07:47:41.949Z,58.90
2019-06-15T07:50:11.148Z,58.90
2019-06-15T07:52:39.452Z,59.00
2019-06-15T07:55:08.095Z,59.00
2019-06-15T07:57:36.418Z,58.90
2019-06-15T08:00:07.536Z,59.00
2019-06-15T08:02:35.816Z,58.90
2019-06-15T08:05:07.497Z,59.00
2019-06-15T08:07:36.148Z,59.00
2019-06-15T08:10:06.910Z,59.20
2019-06-15T08:12:35.691Z,59.10
2019-06-15T08:15:06.081Z,59.30
2019-06-15T08:17:34.704Z,59.90
2019-06-15T08:20:04.665Z,59.40
2019-06-15T08:22:33.032Z,59.40
2019-06-15T08:25:01.746Z,59.50
2019-06-15T08:27:30.485Z,59.50
2019-06-15T08:29:59.130Z,60.20
2019-06-15T08:32:27.411Z,59.50
2019-06-15T08:34:55.730Z,59.50
2019-06-15T08:37:24.131Z,59.50
2019-06-15T08:39:52.503Z,59.60
2019-06-15T08:42:21.460Z,59.70
2019-06-15T08:44:50.128Z,59.70
2019-06-15T08:47:18.723Z,59.80
2019-06-15T08:49:47.002Z,59.90
2019-06-15T08:52:15.373Z,59.90
2019-06-15T08:54:43.672Z,60.00
2019-06-15T08:59:59.379Z,59.80
2019-06-15T09:02:27.676Z,59.90
2019-06-15T09:04:55.965Z,59.70
2019-06-15T09:07:24.247Z,59.80
2019-06-15T09:09:52.538Z,59.90
2019-06-15T09:12:21.136Z,59.80
2019-06-15T09:14:49.410Z,59.70
2019-06-15T09:17:18.001Z,59.70
2019-06-15T09:19:46.274Z,59.80
2019-06-15T09:22:14.578Z,59.80
2019-06-15T09:24:42.883Z,59.70
2019-06-15T09:27:11.166Z,59.70
2019-06-15T09:29:39.455Z,59.70
2019-06-15T09:32:07.762Z,59.70
2019-06-15T09:34:36.357Z,60.30
2019-06-15T09:37:04.928Z,59.80
2019-06-15T09:39:33.278Z,59.60
2019-06-15T09:42:01.894Z,59.70
2019-06-15T09:44:30.175Z,59.70
2019-06-15T09:46:58.476Z,59.60
2019-06-15T09:49:27.023Z,59.60
2019-06-15T09:51:55.321Z,59.40
2019-06-15T09:54:23.600Z,59.50
2019-06-15T09:56:52.167Z,59.40
2019-06-15T09:59:26.066Z,59.40
2019-06-15T10:01:50.764Z,59.50
2019-06-15T10:04:19.298Z,59.50
2019-06-15T10:06:47.935Z,59.60
2019-06-15T10:09:16.207Z,59.50
2019-06-15T10:11:44.521Z,59.70
2019-06-15T10:14:13.084Z,59.60
2019-06-15T10:16:41.444Z,59.50
2019-06-15T10:19:09.811Z,59.90
2019-06-15T10:21:38.500Z,59.80
2019-06-15T10:24:06.881Z,59.80
2019-06-15T10:26:35.178Z,60.30
2019-06-15T10:29:03.751Z,59.80
2019-06-15T10:31:32.358Z,59.70
2019-06-15T10:34:00.662Z,59.80
2019-06-15T10:36:28.931Z,59.70
2019-06-15T10:38:57.235Z,59.70
2019-06-15T10:41:25.539Z,59.80
2019-06-15T10:43:54.145Z,59.80
2019-06-15T10:46:22.816Z,59.90
2019-06-15T10:48:51.099Z,59.90
2019-06-15T10:51:19.420Z,59.80
2019-06-15T10:53:48.057Z,59.70
2019-06-15T10:56:16.639Z,59.50
2019-06-15T10:58:45.344Z,59.70
2019-06-15T11:01:13.685Z,59.70
2019-06-15T11:03:42.293Z,59.80
2019-06-15T11:06:10.580Z,59.50
2019-06-15T11:08:39.166Z,59.30
2019-06-15T11:11:13.870Z,59.40
2019-06-15T11:13:42.468Z,59.60
2019-06-15T11:16:10.804Z,59.50
2019-06-15T11:18:39.276Z,59.50
2019-06-15T11:21:07.903Z,59.50
2019-06-15T11:23:36.210Z,59.40
2019-06-15T11:26:04.583Z,59.30
2019-06-15T11:28:32.900Z,59.60
2019-06-15T11:31:01.236Z,59.60
2019-06-15T11:33:29.900Z,58.70
2019-06-15T11:35:58.489Z,59.50
2019-06-15T11:38:26.792Z,59.30
2019-06-15T11:40:55.346Z,59.50
2019-06-15T11:43:23.935Z,59.40
2019-06-15T11:45:52.506Z,59.40
2019-06-15T11:48:20.787Z,59.10
2019-06-15T11:50:49.111Z,59.20
2019-06-15T11:53:17.747Z,59.00
2019-06-15T11:55:46.334Z,59.40
2019-06-15T11:58:14.631Z,59.00
2019-06-15T12:00:42.905Z,59.00
2019-06-15T12:03:11.298Z,59.20
2019-06-15T12:05:39.611Z,59.30
2019-06-15T12:08:07.902Z,59.40
2019-06-15T12:10:36.195Z,59.40
2019-06-15T12:13:04.579Z,59.10
2019-06-15T12:15:32.874Z,59.40
2019-06-15T12:18:01.195Z,59.40
2019-06-15T12:20:29.566Z,59.20
2019-06-15T12:22:57.847Z,59.10
2019-06-15T12:25:26.185Z,59.50
2019-06-15T12:27:54.721Z,59.50
2019-06-15T12:30:45.936Z,59.40
2019-06-15T12:33:05.531Z,59.50
2019-06-15T12:35:34.322Z,59.60
2019-06-15T12:38:02.703Z,59.50
2019-06-15T12:40:31.006Z,59.80
2019-06-15T12:42:59.309Z,59.30
2019-06-15T12:45:27.600Z,59.10
2019-06-15T12:47:56.323Z,59.20
2019-06-15T12:50:24.899Z,59.20
2019-06-15T12:52:53.200Z,59.30
2019-06-15T12:55:21.792Z,59.80
2019-06-15T12:57:52.910Z,59.20
2019-06-15T13:00:29.505Z,59.20
2019-06-15T13:02:57.870Z,59.20
2019-06-15T13:05:26.438Z,59.20
2019-06-15T13:07:54.724Z,59.00
2019-06-15T13:10:23.105Z,59.00
2019-06-15T13:12:54.463Z,59.10
2019-06-15T13:15:23.030Z,58.90
2019-06-15T13:17:51.800Z,59.00
2019-06-15T13:20:20.178Z,59.10
2019-06-15T13:22:48.485Z,59.10
2019-06-15T13:25:17.060Z,59.10
2019-06-15T13:27:45.369Z,59.00
2019-06-15T13:30:18.564Z,59.00
2019-06-15T13:32:47.212Z,59.00
2019-06-15T13:35:15.514Z,58.90
2019-06-15T13:37:44.180Z,58.90
2019-06-15T13:40:12.755Z,58.90
2019-06-15T13:42:41.044Z,58.80
2019-06-15T13:45:10.552Z,58.80
2019-06-15T13:47:39.226Z,58.80
2019-06-15T13:50:08.110Z,58.80
2019-06-15T13:52:37.010Z,58.80
2019-06-15T13:55:05.803Z,58.90
2019-06-15T13:57:34.087Z,58.80
2019-06-15T14:00:02.867Z,58.80
2019-06-15T14:02:31.444Z,58.80
2019-06-15T14:04:59.748Z,58.80
2019-06-15T14:07:28.042Z,58.70
2019-06-15T14:09:56.339Z,58.80
2019-06-15T14:12:24.645Z,58.80
2019-06-15T14:14:53.255Z,58.80
2019-06-15T14:17:21.566Z,58.80
2019-06-15T14:19:50.120Z,58.70
2019-06-15T14:22:18.437Z,58.60
2019-06-15T14:24:46.884Z,58.50
2019-06-15T14:27:15.179Z,58.30
2019-06-15T14:29:43.821Z,58.50
2019-06-15T14:32:12.399Z,58.50
2019-06-15T14:34:40.679Z,58.50
2019-06-15T14:37:08.979Z,58.40
2019-06-15T14:39:37.539Z,58.00
2019-06-15T14:42:05.856Z,58.10
2019-06-15T14:44:34.223Z,57.60
2019-06-15T14:47:02.896Z,56.90
2019-06-15T14:49:31.572Z,56.90
2019-06-15T14:52:00.246Z,57.20
2019-06-15T14:54:28.531Z,57.10
2019-06-15T14:56:56.828Z,57.20
2019-06-15T14:59:26.477Z,57.00
2019-06-15T15:02:09.097Z,56.90
2019-06-15T15:04:26.591Z,57.00
2019-06-15T15:06:56.543Z,57.10
2019-06-15T15:09:25.356Z,57.10
2019-06-15T15:11:53.841Z,57.00
2019-06-15T15:14:22.231Z,57.30
2019-06-15T15:16:50.775Z,57.00
2019-06-15T15:19:19.385Z,57.10
2019-06-15T15:21:47.670Z,57.20
2019-06-15T15:24:16.718Z,57.40
2019-06-15T15:26:47.052Z,57.40
2019-06-15T15:29:16.282Z,57.40
2019-06-15T15:31:46.704Z,57.60
2019-06-15T15:34:17.424Z,57.50
2019-06-15T15:36:46.266Z,57.40
2019-06-15T15:39:16.665Z,57.40
2019-06-15T15:41:47.082Z,57.40
2019-06-15T15:44:16.204Z,57.40
2019-06-15T15:46:46.200Z,57.50
2019-06-15T15:49:16.310Z,57.70
2019-06-15T15:51:47.258Z,58.80
2019-06-15T15:54:15.241Z,59.60
2019-06-15T15:56:43.539Z,59.60
2019-06-15T15:59:11.820Z,59.50
2019-06-15T16:01:40.470Z,59.50
2019-06-15T16:04:08.761Z,59.20
2019-06-15T16:06:37.422Z,59.00
2019-06-15T16:09:06.315Z,58.80
2019-06-15T16:11:37.013Z,58.70
2019-06-15T16:14:07.200Z,58.80
2019-06-15T16:16:36.604Z,58.70
2019-06-15T16:19:06.460Z,58.70
2019-06-15T16:21:36.761Z,58.60
2019-06-15T16:24:07.382Z,58.60
2019-06-15T16:26:37.390Z,58.30
2019-06-15T16:29:06.944Z,58.30
2019-06-15T16:31:37.464Z,58.30
2019-06-15T16:34:06.093Z,58.20
2019-06-15T16:36:36.464Z,58.20
2019-06-15T16:39:06.599Z,58.30
2019-06-15T16:41:36.414Z,58.20
2019-06-15T16:44:07.200Z,58.00
2019-06-15T16:46:36.931Z,58.00
2019-06-15T16:49:05.093Z,58.00
2019-06-15T16:51:35.967Z,57.90
2019-06-15T16:54:06.135Z,58.00
2019-06-15T16:56:35.978Z,58.00
2019-06-15T16:59:06.429Z,58.00
2019-06-15T17:01:34.135Z,57.90
2019-06-15T17:04:02.702Z,57.80
2019-06-15T17:06:31.006Z,57.90
2019-06-15T17:08:59.667Z,57.90
2019-06-15T17:11:27.991Z,58.00
2019-06-15T17:13:56.418Z,57.80
2019-06-15T17:16:26.021Z,58.00
2019-06-15T17:18:56.216Z,58.10
2019-06-15T17:21:26.005Z,58.10
2019-06-15T17:23:57.046Z,58.50
2019-06-15T17:26:25.988Z,59.00
2019-06-15T17:28:56.632Z,59.00
2019-06-15T17:31:27.011Z,59.50
2019-06-15T17:33:56.326Z,60.00
2019-06-15T17:36:27.474Z,59.60
2019-06-15T17:38:57.057Z,59.70
2019-06-15T17:41:26.546Z,58.80
2019-06-15T17:43:56.524Z,58.80
2019-06-15T17:46:27.682Z,59.00
2019-06-15T17:48:56.115Z,58.90
2019-06-15T17:51:26.788Z,58.90
2019-06-15T17:53:56.363Z,59.00
2019-06-15T17:56:26.667Z,59.30
2019-06-15T17:58:54.598Z,59.60
2019-06-15T18:01:23.171Z,59.60
2019-06-15T18:03:54.593Z,59.60
2019-06-15T18:06:21.870Z,59.50
2019-06-15T18:08:50.167Z,59.20
2019-06-15T18:11:18.727Z,59.10
2019-06-15T18:13:48.957Z,59.00
2019-06-15T18:16:17.543Z,59.00
2019-06-15T18:18:45.859Z,58.90
2019-06-15T18:21:15.952Z,58.90
2019-06-15T18:23:46.442Z,58.70
2019-06-15T18:26:16.156Z,58.60
2019-06-15T18:28:46.729Z,58.50
2019-06-15T18:31:16.302Z,58.50
2019-06-15T18:33:47.118Z,58.50
2019-06-15T18:36:17.155Z,58.50
2019-06-15T18:38:46.525Z,58.50
2019-06-15T18:41:17.009Z,58.50
2019-06-15T18:43:45.558Z,58.50
2019-06-15T18:46:13.957Z,58.40
2019-06-15T18:48:42.306Z,58.50
2019-06-15T18:51:10.930Z,58.50
2019-06-15T18:53:40.129Z,58.50
2019-06-15T18:56:08.486Z,58.40
2019-06-15T18:58:37.375Z,59.00
2019-06-15T19:01:06.942Z,58.30
2019-06-15T19:03:37.543Z,58.40
2019-06-15T19:06:06.539Z,58.20
2019-06-15T19:08:35.503Z,58.20
2019-06-15T19:11:06.795Z,58.20
2019-06-15T19:13:36.006Z,58.20
2019-06-15T19:16:06.786Z,58.30
2019-06-15T19:18:36.827Z,58.30
2019-06-15T19:21:06.802Z,58.40
2019-06-15T19:23:36.057Z,58.30
2019-06-15T19:26:06.273Z,58.40
2019-06-15T19:28:36.833Z,58.30
2019-06-15T19:31:06.476Z,58.20
2019-06-15T19:33:37.698Z,58.20
2019-06-15T19:36:06.310Z,58.30
2019-06-15T19:38:36.176Z,58.30
2019-06-15T19:41:06.992Z,58.40
2019-06-15T19:43:36.328Z,58.30
2019-06-15T19:46:06.806Z,58.40
2019-06-15T19:48:36.871Z,58.40
2019-06-15T19:51:05.551Z,58.40
2019-06-15T19:53:36.167Z,58.60
2019-06-15T19:56:06.643Z,58.60
2019-06-15T19:58:34.149Z,58.60
2019-06-15T20:01:02.531Z,58.50
2019-06-15T20:03:31.291Z,58.40
2019-06-15T20:05:59.877Z,58.40
2019-06-15T20:08:28.290Z,58.30
2019-06-15T20:10:56.813Z,58.40
2019-06-15T20:13:25.354Z,58.30
2019-06-15T20:15:53.897Z,58.20
2019-06-15T20:18:22.183Z,58.20
2019-06-15T20:20:50.478Z,58.20
2019-06-15T20:23:18.804Z,58.20
2019-06-15T20:25:47.306Z,58.80
2019-06-15T20:28:16.366Z,58.40
2019-06-15T20:30:46.259Z,58.20
2019-06-15T20:33:16.706Z,58.30
2019-06-15T20:35:47.155Z,58.30
2019-06-15T20:38:16.235Z,58.30
2019-06-15T20:40:47.352Z,58.30
2019-06-15T20:43:17.053Z,58.30
2019-06-15T20:45:47.066Z,58.50
2019-06-15T20:48:15.724Z,58.40
2019-06-15T20:50:44.047Z,58.40
2019-06-15T20:53:12.335Z,58.40
2019-06-15T20:55:41.062Z,58.40
2019-06-15T20:58:09.362Z,58.40
2019-06-15T21:00:37.667Z,58.50
2019-06-15T21:03:06.794Z,58.30
2019-06-15T21:05:41.634Z,58.30
2019-06-15T21:08:06.915Z,58.30
2019-06-15T21:10:37.223Z,58.40
2019-06-15T21:13:05.765Z,58.30
2019-06-15T21:15:37.376Z,58.40
2019-06-15T21:18:06.737Z,58.40
2019-06-15T21:20:36.324Z,58.30
2019-06-15T21:23:06.664Z,58.50
2019-06-15T21:25:35.181Z,58.40
2019-06-15T21:28:06.515Z,58.50
2019-06-15T21:30:36.634Z,58.50
2019-06-15T21:33:06.822Z,58.50
2019-06-15T21:35:48.164Z,58.60
2019-06-15T21:38:06.534Z,58.60
2019-06-15T21:40:36.868Z,58.60
2019-06-15T21:43:07.015Z,58.60
2019-06-15T21:45:36.884Z,58.60
2019-06-15T21:48:06.779Z,58.60
2019-06-15T21:50:36.263Z,58.70
2019-06-15T21:53:06.966Z,58.70
2019-06-15T21:55:36.409Z,58.80
2019-06-15T21:58:07.554Z,58.80
2019-06-15T22:00:47.711Z,58.90
2019-06-15T22:03:17.025Z,59.00
2019-06-15T22:05:47.307Z,59.00
2019-06-15T22:08:17.069Z,59.10
2019-06-15T22:10:45.598Z,59.00
2019-06-15T22:13:16.049Z,59.20
2019-06-15T22:15:46.451Z,59.20
2019-06-15T22:18:16.233Z,59.30
2019-06-15T22:20:46.792Z,59.20
2019-06-15T22:23:16.308Z,59.10
2019-06-15T22:25:46.388Z,59.20
2019-06-15T22:28:16.382Z,59.30
2019-06-15T22:30:46.232Z,59.20
2019-06-15T22:33:16.545Z,59.20
2019-06-15T22:35:47.299Z,59.40
2019-06-15T22:38:15.045Z,59.20
2019-06-15T22:40:43.429Z,59.40
2019-06-15T22:43:11.718Z,59.40
2019-06-15T22:45:40.027Z,59.20
2019-06-15T22:48:08.320Z,59.20
2019-06-15T22:50:36.940Z,59.30
2019-06-15T22:53:07.277Z,59.20
2019-06-15T22:55:36.934Z,59.20
2019-06-15T22:58:06.538Z,59.20
2019-06-15T23:00:37.551Z,59.20
2019-06-15T23:03:06.332Z,59.20
2019-06-15T23:05:34.811Z,59.30
2019-06-15T23:08:03.375Z,59.40
2019-06-15T23:10:31.667Z,59.10
2019-06-15T23:13:00.075Z,59.00
2019-06-15T23:15:30.063Z,59.00
2019-06-15T23:17:58.366Z,59.10
2019-06-15T23:20:27.086Z,59.10
2019-06-15T23:22:56.164Z,59.00
2019-06-15T23:25:27.279Z,59.10
2019-06-15T23:27:56.400Z,59.00
2019-06-15T23:30:25.132Z,59.00
2019-06-15T23:32:56.018Z,59.20
2019-06-15T23:35:26.132Z,58.90
2019-06-15T23:37:55.928Z,58.90
2019-06-15T23:40:28.683Z,58.70
2019-06-15T23:42:57.370Z,59.00
2019-06-15T23:45:27.006Z,58.90
2019-06-15T23:47:57.544Z,58.70
2019-06-15T23:50:26.444Z,58.80
2019-06-15T23:52:55.311Z,58.80
2019-06-15T23:55:23.667Z,58.50
2019-06-15T23:57:52.024Z,58.80
